Date,TemperatureHighF,TemperatureAvgF,TemperatureLowF,DewpointHighF,DewpointAvgF,DewpointLowF,HumidityHigh,HumidityAvg,HumidityLow,PressureMaxIn,PressureMinIn,WindSpeedMaxMPH,WindSpeedAvgMPH,GustSpeedMaxMPH,PrecipitationSumIn
2014-1-1,7,1,-16,-1,-7,-23,70,70,70,30.44,30.35,12,0,0,0.00
2014-1-2,9,2,-15,1,-6,-22,70,70,70,30.47,30.32,48,2,48,0.00
2014-1-3,16,2,-19,11,-5,-26,79,71,70,30.44,29.67,13,0,13,0.00
2014-1-4,30,20,8,29,13,0,98,75,68,30.11,29.55,46,2,46,0.00
2014-1-5,8,-2,-13,0,-10,-20,69,69,69,30.26,30.11,13,6,13,0.00
2014-1-6,-13,-18,-24,-20,-25,-31,69,69,69,30.29,30.14,54,6,54,0.00
2014-1-7,0,-10,-20,-8,-18,-27,69,69,69,30.29,30.14,50,2,40,0.00
2014-1-8,4,-8,-18,-4,-15,-25,69,69,69,30.52,30.29,60,2,60,0.00
2014-1-9,17,0,-22,14,-8,-29,86,69,60,30.52,30.08,26,3,26,0.00
2014-1-10,32,26,17,32,26,14,100,99,86,30.08,29.43,70,2,70,0.16
2014-1-11,32,29,27,32,29,26,100,99,94,29.67,29.40,0,0,0,0.00
2014-1-12,40,32,24,32,28,24,100,89,69,29.70,29.43,16,0,16,0.00
2014-1-13,35,30,17,34,25,12,100,83,65,29.67,29.46,0,0,0,0.00
2014-1-14,25,21,15,25,20,10,100,96,80,29.90,29.49,7,0,7,0.61
2014-1-15,15,11,8,10,4,0,80,75,70,30.02,29.58,45,1,45,0.00
2014-1-16,31,20,9,29,16,3,98,83,70,29.70,29.37,46,6,46,0.13
2014-1-17,22,13,-1,14,7,-8,96,76,71,29.93,29.70,47,6,47,0.01
2014-1-18,12,3,-4,4,-4,-11,73,73,72,29.90,29.76,0,0,0,0.00
2014-1-19,36,25,12,28,20,4,94,83,66,29.76,29.40,53,4,53,0.00
2014-1-20,29,14,-1,26,7,-10,91,75,64,30.29,29.61,32,1,32,0.05
2014-1-21,4,-5,-12,-6,-14,-21,64,64,64,30.38,30.11,32,3,32,0.00
2014-1-22,6,1,-4,-4,-8,-13,64,64,64,30.26,29.88,0,0,0,0.03
2014-1-23,2,-5,-15,-8,-14,-23,64,64,64,30.58,30.26,0,0,0,0.00
2014-1-24,28,11,-16,26,4,-24,100,73,64,30.38,29.37,0,0,0,0.04
2014-1-25,27,7,-4,21,-2,-12,76,66,59,29.79,29.37,8,0,4,0.00
2014-1-26,13,6,0,4,-3,-9,66,66,66,29.82,29.31,83,6,83,0.17
2014-1-27,-1,-10,-16,-9,-19,-24,66,66,66,30.35,29.82,132,10,132,0.00
2014-1-28,3,-10,-20,-6,-18,-28,66,66,66,30.38,30.14,19,0,18,0.00
2014-1-29,23,6,-10,14,-3,-18,70,64,58,30.14,29.73,56,10,56,0.00
2014-1-30,29,22,8,28,16,0,97,77,64,29.93,29.46,77,4,77,0.38
2014-1-31,7,-3,-13,0,-10,-20,72,72,72,30.17,29.93,31,0,31,0.00
2014-2-1,16,5,-13,8,-2,-19,76,73,68,30.02,29.84,12,0,12,0.00
2014-2-2,12,-1,-16,6,-7,-21,76,76,76,30.17,29.99,125,2,125,0.00
2014-2-3,23,1,-19,12,-7,-24,76,71,61,30.23,30.08,126,7,126,0.00
2014-2-4,19,6,-8,9,-3,-16,70,66,62,30.35,26.46,122,3,122,0.00
2014-2-5,32,10,1,3,0,-9,64,64,64,30.32,26.60,86,1,62,0.00
2014-2-6,7,-4,-14,-3,-13,-22,64,64,64,30.29,30.11,91,1,91,0.00
2014-2-7,32,-1,-11,4,-11,-20,64,62,59,30.11,30.02,13,1,23,0.00
2014-2-8,15,2,-15,6,-8,-25,67,62,59,30.11,29.99,10,0,10,0.00
2014-2-9,32,7,-3,4,-2,-11,67,67,67,30.17,26.46,73,2,50,0.00
2014-2-10,32,-4,-14,-4,-12,-22,67,67,67,30.35,26.60,2,0,23,0.00
2014-2-11,15,-4,-22,5,-13,-30,67,64,60,33.65,30.14,22,1,36,0.00
2014-2-12,32,9,-1,32,0,-8,100,66,60,30.14,29.88,126,2,126,0.03
2014-2-13,25,18,5,25,14,-3,99,84,71,29.88,26.46,153,4,153,0.07
2014-2-14,20,12,-2,15,5,-10,90,70,64,29.90,29.49,22,4,48,0.00
2014-2-15,24,4,-13,12,-4,-21,86,69,58,29.96,29.82,126,1,126,0.05
2014-2-16,24,14,5,12,7,2,86,75,60,30.14,29.84,126,2,126,0.00
2014-2-17,25,19,13,24,17,4,100,91,69,30.14,29.61,43,2,43,0.44
2014-2-18,39,27,20,32,24,20,100,92,68,29.76,29.49,10,1,10,0.00
2014-2-19,44,28,9,30,23,9,100,81,56,29.79,29.58,10,2,10,0.00
2014-2-20,36,33,29,35,30,21,100,88,70,29.79,28.87,17,5,17,0.47
2014-2-21,33,19,15,33,15,8,100,83,72,29.58,28.90,20,10,20,0.00
2014-2-22,23,14,7,11,6,-1,76,69,58,29.93,29.58,13,5,13,0.00
2014-2-23,21,10,2,8,1,-6,69,65,58,30.05,29.93,33,6,33,0.00
2014-2-24,14,8,2,3,-2,-7,63,62,60,30.14,30.02,74,1,74,0.00
2014-2-25,9,4,-4,-2,-7,-14,61,61,61,30.11,29.99,98,4,98,0.00
2014-2-26,13,2,-11,2,-8,-21,61,61,61,30.11,29.46,126,6,126,0.00
2014-2-27,5,-6,-19,-6,-16,-28,61,61,61,30.05,29.55,0,0,10,0.00
2014-2-28,14,1,-21,2,-9,-30,61,61,61,30.05,29.84,97,2,97,0.16
2014-3-1,11,5,0,0,-5,-10,61,61,61,30.29,29.96,96,9,82,0.00
2014-3-2,2,-4,-15,-9,-14,-24,61,61,61,30.35,30.26,110,13,98,0.00
2014-3-3,17,-2,-25,5,-13,-34,61,59,56,30.38,30.17,44,2,44,0.00
2014-3-4,21,12,7,10,2,-4,75,63,57,30.20,30.05,47,1,47,0.04
2014-3-5,21,11,-4,8,0,-16,69,62,55,30.38,30.17,36,3,36,0.00
2014-3-6,31,13,-8,17,2,-20,85,63,56,30.35,29.88,125,5,125,0.00
2014-3-7,38,29,16,28,22,11,80,75,64,29.96,29.73,39,4,39,0.08
2014-3-8,31,22,8,22,12,1,73,66,56,30.14,29.96,17,4,17,0.00
2014-3-9,42,26,6,31,18,-2,94,70,59,30.08,29.58,18,6,18,0.00
2014-3-10,56,40,26,41,32,26,100,76,51,29.61,29.46,43,3,43,0.00
2014-3-11,44,40,35,33,30,25,85,68,56,29.79,29.58,10,2,10,0.00
2014-3-12,34,24,9,28,13,-3,94,64,48,29.99,29.76,14,4,14,0.02
2014-3-13,42,24,5,32,13,-7,92,63,56,29.99,29.58,14,6,14,0.00
2014-3-14,44,38,31,37,31,24,100,78,63,29.79,29.44,17,6,17,0.00
2014-3-15,34,29,20,24,17,8,71,61,54,30.35,29.79,14,5,14,0.00
2014-3-16,24,14,5,9,4,-2,70,63,52,30.44,30.05,12,3,12,0.00
2014-3-17,31,22,12,19,12,5,78,67,57,30.05,29.64,16,3,16,0.00
2014-3-18,43,32,22,32,26,18,100,81,64,29.73,29.64,12,3,12,0.00
2014-3-19,37,33,31,34,30,22,100,88,66,29.84,29.58,15,4,15,0.12
2014-3-20,39,32,25,25,22,18,85,65,56,29.93,29.82,18,3,18,0.00
2014-3-21,45,34,20,35,27,20,100,79,55,29.90,29.64,53,3,53,0.00
2014-3-22,36,26,14,31,16,5,90,67,58,30.29,29.79,15,7,15,0.00
2014-3-23,21,15,7,9,4,-2,66,62,58,30.35,30.26,44,4,44,0.00
2014-3-24,32,18,4,26,9,-6,100,70,56,30.26,29.93,25,3,25,0.00
2014-3-25,19,14,6,14,5,-5,85,67,58,30.11,29.90,15,5,15,0.03
2014-3-26,34,20,1,27,9,-10,88,62,55,30.11,29.76,13,4,13,0.00
2014-3-27,38,35,30,37,32,25,100,90,69,29.76,29.37,78,3,15,0.60
2014-3-28,41,34,27,34,26,21,100,74,55,30.11,29.43,13,3,13,0.00
2014-3-29,45,34,28,29,25,20,88,69,53,30.20,30.08,9,2,9,0.00
2014-3-30,57,41,29,39,30,21,79,64,50,30.14,29.84,16,5,16,0.00
2014-3-31,60,48,39,44,38,34,89,69,54,29.88,29.43,13,4,13,0.00
2014-4-1,51,32,27,40,25,18,94,73,63,29.96,29.43,20,8,20,0.00
2014-4-2,46,34,23,30,22,16,79,64,50,30.11,29.96,12,3,12,0.00
2014-4-3,36,32,29,28,24,20,99,73,59,30.05,29.67,15,7,15,0.01
2014-4-4,34,32,30,34,32,28,100,99,84,29.88,29.43,10,0,10,0.22
2014-4-5,50,35,18,36,28,18,100,78,52,30.05,29.88,13,3,13,0.24
2014-4-6,62,47,35,43,35,26,76,63,49,29.99,29.76,20,8,20,0.00
2014-4-7,59,45,34,51,41,32,100,86,60,29.82,29.61,10,2,10,0.06
2014-4-8,57,45,32,39,35,24,100,71,48,29.88,29.61,21,4,21,0.00
2014-4-9,63,45,25,42,33,23,100,65,44,29.90,29.55,20,6,20,0.00
2014-4-10,62,52,32,41,35,19,67,51,44,29.92,29.57,17,7,17,0.00
2014-4-11,58,44,29,42,32,19,78,63,50,30.01,29.92,15,2,15,0.00
2014-4-12,46,42,39,42,38,31,100,88,57,30.01,29.72,14,4,14,0.75
2014-4-13,51,43,34,49,42,34,100,97,82,29.84,29.66,16,4,16,0.67
2014-4-14,34,30,20,34,27,17,100,91,77,30.04,29.63,15,0,15,0.36
2014-4-15,34,22,6,32,15,3,100,75,56,30.16,30.01,0,0,0,0.04
2014-4-16,46,34,18,32,26,15,93,73,58,30.22,30.04,13,3,13,0.00
2014-4-17,50,41,35,38,33,28,100,74,63,30.28,29.98,12,5,12,0.00
2014-4-18,53,44,26,35,30,23,94,59,46,30.37,30.31,10,4,10,0.00
2014-4-19,64,48,31,45,35,26,84,61,48,30.40,30.10,15,5,15,0.00
2014-4-20,62,54,50,59,49,40,100,83,58,30.13,29.98,10,3,10,0.24
2014-4-21,70,59,48,62,50,33,100,77,42,29.98,29.78,17,4,17,0.08
2014-4-22,54,45,32,34,30,23,68,56,46,30.10,29.92,17,7,17,0.00
2014-4-23,54,42,28,36,29,23,96,62,45,30.16,30.04,9,3,9,0.00
2014-4-24,43,40,35,43,36,23,100,87,48,30.10,29.69,15,5,15,0.85
2014-4-25,60,48,39,47,40,31,100,76,50,29.90,29.69,15,4,15,0.36
2014-4-26,54,43,33,36,31,28,83,64,51,30.13,29.90,13,5,13,0.00
2014-4-27,42,38,34,39,33,28,100,84,64,30.13,29.87,25,7,25,0.47
2014-4-28,47,42,38,41,35,31,100,78,61,29.90,29.75,21,9,21,0.40
2014-4-29,43,40,37,43,40,37,100,99,88,29.75,29.57,27,7,27,0.59
2014-4-30,53,46,42,53,46,41,100,98,83,29.69,29.63,20,2,20,0.40
2014-5-1,51,45,39,47,42,39,100,91,66,29.78,29.60,12,3,12,0.06
2014-5-2,54,46,42,46,43,39,100,88,62,29.78,29.66,64,3,64,0.04
2014-5-3,60,49,40,45,39,32,100,72,47,29.84,29.66,43,4,43,0.04
2014-5-4,62,49,38,40,33,27,66,53,44,30.07,29.84,13,3,13,0.00
2014-5-5,58,48,41,40,35,31,75,61,51,30.10,29.98,22,3,22,0.00
2014-5-6,62,49,34,43,37,32,100,65,47,30.07,29.95,22,4,22,0.00
2014-5-7,51,48,44,50,44,35,100,88,66,30.01,29.84,15,6,15,0.32
2014-5-8,74,60,48,63,55,48,100,84,60,29.84,29.63,25,4,25,0.04
2014-5-9,70,57,48,64,51,41,100,80,65,29.81,29.57,32,6,32,0.08
2014-5-10,71,56,38,53,43,38,100,66,42,29.92,29.81,32,2,32,0.00
2014-5-11,80,68,56,67,58,47,100,73,46,29.92,29.87,62,3,62,0.02
2014-5-12,77,64,56,71,62,56,100,94,64,29.90,29.75,78,3,78,1.62
2014-5-13,65,54,44,65,48,39,100,82,60,30.13,29.72,62,4,23,0.40
2014-5-14,60,51,38,42,37,34,100,62,47,30.22,30.07,15,4,15,0.00
2014-5-15,55,47,38,38,33,25,76,58,50,30.07,29.98,29,6,29,0.00
2014-5-16,51,43,30,34,30,24,87,60,52,30.07,29.98,13,2,13,0.00
2014-5-17,63,55,40,41,37,31,70,51,43,30.07,30.01,68,4,68,0.00
2014-5-18,72,56,40,49,40,31,80,57,41,30.10,30.07,29,4,29,0.00
2014-5-19,67,53,44,51,45,36,100,78,48,30.16,29.92,76,4,76,1.50
2014-5-20,76,62,50,61,56,50,100,83,56,29.92,29.84,40,2,40,0.00
2014-5-21,75,63,51,65,52,45,100,71,47,30.04,29.84,20,4,20,0.00
2014-5-22,70,59,48,49,46,40,98,65,48,30.19,30.04,19,4,18,0.00
2014-5-23,76,59,42,54,46,39,100,64,45,30.25,30.16,38,3,38,0.00
2014-5-24,83,65,46,57,50,44,100,65,41,30.25,30.10,15,3,15,0.00
2014-5-25,87,69,47,61,53,45,100,61,41,30.13,29.95,24,4,24,0.00
2014-5-26,87,74,65,68,62,54,92,67,46,29.98,29.87,15,4,15,0.02
2014-5-27,77,69,64,72,65,56,100,88,64,29.98,29.87,55,2,55,0.81
2014-5-28,76,65,54,56,49,40,85,57,43,30.10,29.98,10,3,10,0.00
2014-5-29,84,67,48,58,53,48,100,66,41,30.16,30.07,9,2,9,0.00
2014-5-30,89,71,52,64,57,51,100,65,40,30.22,30.13,10,1,10,0.00
2014-5-31,91,75,55,63,56,48,89,54,40,30.16,30.01,16,4,16,0.00
2014-6-1,84,70,65,74,66,55,100,88,52,30.04,29.81,19,5,19,0.70
2014-6-2,80,70,66,71,65,56,100,87,55,29.81,29.66,43,6,43,0.59
2014-6-3,76,66,58,57,52,48,88,61,46,29.92,29.72,14,4,14,0.00
2014-6-4,80,67,57,59,54,50,100,68,45,29.92,29.84,8,2,8,0.00
2014-6-5,80,68,56,62,56,52,100,69,45,29.98,29.90,56,3,56,0.00
2014-6-6,84,70,60,62,56,52,98,63,44,29.98,29.92,13,3,13,0.00
2014-6-7,82,66,57,66,60,55,100,83,50,29.98,29.90,20,3,20,0.12
2014-6-8,76,64,55,56,50,46,95,64,43,30.07,29.98,13,4,13,0.00
2014-6-9,77,65,56,53,48,43,74,54,40,30.07,29.95,94,2,94,0.00
2014-6-10,76,64,51,54,51,45,100,64,43,29.98,29.90,18,2,18,0.00
2014-6-11,81,67,57,58,52,47,83,59,45,29.90,29.75,66,3,66,0.00
2014-6-12,72,63,56,63,52,43,100,71,47,29.87,29.69,16,4,16,0.00
2014-6-13,73,60,49,49,44,40,74,56,41,30.01,29.87,16,5,16,0.00
2014-6-14,80,64,47,56,49,42,99,62,42,30.07,29.87,13,3,13,0.00
2014-6-15,84,70,60,66,55,46,78,58,46,29.92,29.66,38,5,38,0.02
2014-6-16,90,72,54,68,59,53,100,68,40,30.01,29.81,17,4,17,0.49
2014-6-17,87,74,64,70,65,62,100,77,47,29.90,29.72,50,1,50,0.85
2014-6-18,78,68,63,71,66,63,100,92,63,30.04,29.84,45,3,45,2.75
2014-6-19,76,68,62,67,63,60,100,85,62,30.13,30.01,50,2,49,0.00
2014-6-20,82,68,61,71,64,61,100,90,56,30.01,29.92,38,1,38,0.00
2014-6-21,81,68,61,70,65,61,100,92,64,29.95,29.84,12,0,12,0.00
2014-6-22,79,70,64,68,65,62,100,86,59,29.95,29.84,6,0,6,0.00
2014-6-23,83,72,66,71,66,63,100,82,55,29.87,29.81,30,1,30,0.04
2014-6-24,86,74,64,70,63,59,100,72,45,29.95,29.84,17,2,17,0.00
2014-6-25,80,68,62,68,63,58,100,84,53,30.07,29.95,13,1,13,0.04
2014-6-26,80,69,60,62,60,57,100,75,55,30.10,29.98,47,1,47,0.00
2014-6-27,87,73,62,71,66,61,100,80,53,30.04,29.90,14,2,14,0.12
2014-6-28,89,79,70,72,70,65,100,76,53,29.95,29.81,17,6,17,0.12
2014-6-29,86,73,66,72,67,62,100,83,47,29.87,29.78,45,7,45,0.53
2014-6-30,81,71,65,74,68,64,100,92,63,29.81,29.48,17,7,17,0.10
2014-7-1,76,68,62,67,63,60,100,86,59,29.72,29.57,17,6,17,0.18
2014-7-2,73,62,56,62,54,41,100,77,49,30.04,29.72,13,4,13,0.08
2014-7-3,76,62,44,57,50,40,100,68,46,30.19,30.04,9,2,9,0.00
2014-7-4,83,66,47,61,53,47,100,66,41,30.31,30.19,20,2,20,0.00
2014-7-5,82,69,57,62,57,50,88,66,49,30.22,29.98,18,7,18,0.00
2014-7-6,79,71,65,76,69,61,100,95,81,29.98,29.63,16,6,16,0.00
2014-7-7,86,72,60,70,64,60,100,80,45,29.75,29.60,24,3,24,0.36
2014-7-8,75,66,60,66,61,56,100,87,56,29.84,29.60,52,11,52,0.07
2014-7-9,72,64,55,62,54,50,100,74,49,30.07,29.84,24,6,24,0.00
2014-7-10,82,68,50,64,57,50,100,73,46,30.16,30.04,20,6,20,0.00
2014-7-11,80,71,62,65,60,55,100,72,46,30.13,30.04,34,14,34,0.00
2014-7-12,78,70,63,72,67,62,100,91,75,29.98,29.87,20,4,20,0.14
2014-7-13,77,68,59,68,57,51,100,73,43,29.92,29.87,25,10,25,0.04
2014-7-14,71,59,50,60,52,47,100,78,50,29.90,29.84,25,7,25,0.02
2014-7-15,68,59,50,58,51,45,100,79,50,30.01,29.90,34,12,34,0.06
2014-7-16,73,60,45,58,49,45,100,71,46,30.04,30.01,18,2,18,0.00
2014-7-17,78,64,46,61,52,46,100,70,45,30.10,30.04,13,4,13,0.00
2014-7-18,82,68,52,62,56,50,100,69,46,30.13,30.04,20,5,20,0.00
2014-7-19,83,70,61,64,61,58,98,74,47,30.07,29.98,24,9,24,0.00
2014-7-20,86,72,59,66,63,59,100,75,47,30.01,29.92,24,10,24,0.00
2014-7-21,91,77,65,71,68,65,100,76,52,30.01,29.98,21,11,21,0.00
2014-7-22,92,78,66,74,69,59,100,75,49,30.10,29.87,25,15,25,0.00
2014-7-23,80,68,56,61,56,52,100,70,46,30.22,30.10,23,5,23,0.00
2014-7-24,85,68,51,60,55,51,100,67,43,30.19,29.98,9,3,9,0.00
2014-7-25,71,66,60,65,61,56,100,84,71,30.01,29.87,26,9,26,0.04
2014-7-26,84,72,62,71,66,62,100,86,57,29.90,29.78,21,7,21,0.00
2014-7-27,76,66,58,68,60,53,100,82,50,30.04,29.72,37,12,37,0.20
2014-7-28,74,64,51,57,54,51,100,72,47,30.13,30.04,21,8,21,0.00
2014-7-29,79,66,56,60,56,52,100,72,47,30.07,29.98,25,7,25,0.00
2014-7-30,77,66,52,61,55,52,100,71,45,30.07,29.98,18,4,18,0.00
2014-7-31,83,68,56,67,61,56,100,83,46,30.01,29.95,34,6,34,1.07
2014-8-1,83,65,57,71,61,55,100,90,54,30.10,29.98,21,3,21,0.47
2014-8-2,87,70,53,69,60,53,100,76,44,30.16,30.07,7,2,7,0.00
2014-8-3,86,73,61,72,63,60,100,76,47,30.13,30.04,25,6,25,0.00
2014-8-4,76,67,62,73,65,62,100,94,69,30.13,30.04,9,4,9,1.03
2014-8-5,81,69,59,66,60,57,100,78,49,30.10,30.07,9,3,9,0.00
2014-8-6,84,69,56,66,59,56,100,73,45,30.10,30.04,8,2,8,0.00
2014-8-7,84,70,58,63,58,54,100,71,44,30.13,30.07,18,5,18,0.00
2014-8-8,86,69,55,62,58,54,100,70,43,30.16,30.07,10,4,10,0.00
2014-8-9,85,69,56,66,59,54,100,73,45,30.16,30.10,25,4,25,0.00
2014-8-10,85,70,54,63,58,53,100,70,45,30.13,29.98,10,3,10,0.00
2014-8-11,80,67,60,68,62,58,100,86,55,30.01,29.87,28,6,28,2.17
2014-8-12,74,64,57,60,53,48,100,70,47,29.98,29.90,29,14,29,0.00
2014-8-13,78,67,55,64,55,48,100,70,46,30.10,29.95,23,6,23,0.00
2014-8-14,74,60,47,53,49,45,100,68,46,30.16,30.04,18,2,18,0.00
2014-8-15,81,65,46,66,57,46,100,78,48,30.07,29.90,18,3,18,0.00
2014-8-16,86,72,63,71,67,63,100,87,55,29.95,29.84,21,8,21,0.14
2014-8-17,74,65,58,65,60,58,100,87,62,30.07,29.95,12,6,12,0.00
2014-8-18,75,64,59,73,64,59,100,99,85,29.95,29.69,26,6,26,3.03
2014-8-19,77,68,62,72,64,62,100,89,66,29.78,29.63,24,7,24,0.47
2014-8-20,76,66,60,65,62,60,100,88,63,29.95,29.78,9,2,9,0.00
2014-8-21,76,68,62,74,68,62,100,98,83,29.98,29.87,13,5,13,0.43
2014-8-22,89,76,68,79,72,68,100,89,61,29.98,29.90,9,5,9,0.00
2014-8-23,76,72,70,75,72,70,100,100,100,30.04,29.95,9,5,9,0.02
2014-8-24,84,74,68,74,70,68,100,91,65,30.01,29.95,24,11,24,0.00
2014-8-25,85,75,67,76,71,67,100,89,61,30.01,29.92,20,7,20,0.57
2014-8-26,71,66,61,70,57,54,100,75,57,30.16,30.01,25,6,25,0.00
2014-8-27,75,65,58,61,57,54,100,77,56,30.19,30.10,6,2,6,0.00
2014-8-28,74,65,56,68,61,54,100,89,65,30.16,30.01,9,4,9,0.04
2014-8-29,84,69,58,73,66,58,100,91,65,30.04,29.78,12,6,12,1.34
2014-8-30,73,68,65,73,68,65,100,98,82,29.90,29.75,12,4,12,1.48
2014-8-31,84,71,61,71,66,61,100,85,55,29.92,29.75,20,5,20,0.00